createdAt,value
2023-05-23T00:03:25.386Z,9.37
2023-05-23T00:08:29.972Z,8.17
2023-05-23T00:13:34.903Z,8.93
2023-05-23T00:18:38.226Z,8.33
2023-05-23T00:23:43.383Z,8.73
2023-05-23T00:28:46.499Z,8.33
2023-05-23T00:33:49.653Z,8.57
2023-05-23T00:38:54.420Z,9.03
2023-05-23T00:43:59.901Z,9.10
2023-05-23T00:49:03.331Z,9.87
2023-05-23T00:54:08.289Z,9.20
2023-05-23T00:59:11.621Z,9.60
2023-05-23T01:04:16.858Z,8.57
2023-05-23T01:09:22.847Z,9.37
2023-05-23T01:14:34.345Z,9.83
2023-05-23T01:20:01.114Z,9.27
2023-05-23T01:25:12.983Z,9.40
2023-05-23T01:30:21.039Z,8.30
2023-05-23T01:35:27.467Z,9.27
2023-05-23T01:40:30.782Z,9.63
2023-05-23T01:45:35.695Z,10.07
2023-05-23T01:50:39.390Z,9.70
2023-05-23T01:55:43.196Z,10.00
2023-05-23T02:00:47.926Z,8.87
2023-05-23T02:05:51.070Z,9.90
2023-05-23T02:10:54.172Z,10.57
2023-05-23T02:15:58.636Z,10.40
2023-05-23T02:21:01.829Z,8.60
2023-05-23T02:26:05.011Z,9.07
2023-05-23T02:31:09.557Z,10.03
2023-05-23T02:36:12.699Z,9.33
2023-05-23T02:41:15.930Z,10.03
2023-05-23T02:46:20.483Z,10.33
2023-05-23T02:51:23.698Z,9.30
2023-05-23T02:56:27.035Z,11.33
2023-05-23T03:01:31.658Z,11.07
2023-05-23T03:06:37.023Z,10.57
2023-05-23T03:11:40.410Z,10.50
2023-05-23T03:16:45.524Z,11.63
2023-05-23T03:21:50.286Z,8.90
2023-05-23T03:26:53.381Z,10.97
2023-05-23T03:31:57.927Z,11.90
2023-05-23T03:37:01.231Z,10.27
2023-05-23T03:42:04.529Z,11.00
2023-05-23T03:47:09.283Z,11.10
2023-05-23T03:52:12.534Z,11.80
2023-05-23T03:57:15.664Z,11.83
2023-05-23T04:02:20.219Z,12.10
2023-05-23T04:07:23.481Z,12.23
2023-05-23T04:12:26.788Z,12.77
2023-05-23T04:17:31.460Z,12.80
2023-05-23T04:22:34.638Z,13.03
2023-05-23T04:27:40.549Z,12.97
2023-05-23T04:32:46.156Z,12.83
2023-05-23T04:37:49.424Z,13.03
2023-05-23T04:42:52.548Z,12.37
2023-05-23T04:47:57.053Z,12.70
2023-05-23T04:53:00.354Z,14.53
2023-05-23T04:58:03.607Z,14.20
2023-05-23T05:03:09.924Z,13.97
2023-05-23T05:08:14.404Z,14.67
2023-05-23T05:13:17.649Z,13.63
2023-05-23T05:18:22.255Z,14.00
2023-05-23T05:23:28.926Z,12.77
2023-05-23T05:28:32.281Z,13.13
2023-05-23T05:33:37.715Z,13.53
2023-05-23T05:38:40.994Z,13.80
2023-05-23T05:43:44.203Z,14.17
2023-05-23T05:48:49.003Z,13.60
2023-05-23T05:53:52.154Z,14.27
2023-05-23T05:58:55.333Z,13.30
2023-05-23T06:04:00.013Z,13.87
2023-05-23T06:09:03.309Z,14.07
2023-05-23T06:14:06.618Z,13.97
2023-05-23T06:19:11.792Z,14.33
2023-05-23T06:24:14.987Z,13.43
2023-05-23T06:29:18.157Z,13.10
2023-05-23T06:34:22.618Z,14.40
2023-05-23T06:39:25.755Z,13.83
2023-05-23T06:44:28.921Z,14.00
2023-05-23T06:49:33.576Z,13.73
2023-05-23T06:54:36.705Z,13.80
2023-05-23T06:59:39.857Z,14.57
2023-05-23T07:04:44.325Z,14.83
2023-05-23T07:09:47.685Z,15.30
2023-05-23T07:14:51.064Z,14.17
2023-05-23T07:19:55.726Z,14.17
2023-05-23T07:24:58.893Z,14.20
2023-05-23T07:30:02.059Z,14.10
2023-05-23T07:35:07.341Z,13.73
2023-05-23T07:40:11.136Z,13.47
2023-05-23T07:45:14.627Z,14.63
2023-05-23T07:50:19.122Z,14.43
2023-05-23T07:55:22.445Z,12.90
2023-05-23T08:00:25.605Z,14.47
2023-05-23T08:05:30.102Z,13.50
2023-05-23T08:10:33.849Z,12.93
2023-05-23T08:15:37.019Z,13.47
2023-05-23T08:20:41.738Z,13.43
2023-05-23T08:25:45.223Z,13.17
2023-05-23T08:30:48.411Z,13.00
2023-05-23T08:35:52.919Z,10.70
2023-05-23T08:40:57.655Z,11.97
2023-05-23T08:46:00.915Z,12.13
2023-05-23T08:51:06.319Z,10.97
2023-05-23T08:56:11.277Z,11.13
2023-05-23T09:01:14.873Z,12.10
2023-05-23T09:06:22.767Z,11.57
2023-05-23T09:11:26.458Z,12.43
2023-05-23T09:16:35.024Z,10.97
2023-05-23T09:21:43.697Z,11.43
2023-05-23T09:26:49.002Z,11.83
2023-05-23T09:31:52.142Z,11.10
2023-05-23T09:36:58.211Z,11.43
2023-05-23T09:42:02.781Z,10.43
2023-05-23T09:47:08.424Z,11.57
2023-05-23T09:52:13.590Z,11.10
2023-05-23T09:57:17.832Z,10.37
2023-05-23T10:02:37.041Z,9.83
2023-05-23T10:07:43.600Z,10.50
2023-05-23T10:12:51.341Z,9.47
2023-05-23T10:18:03.867Z,9.13
2023-05-23T10:23:08.893Z,9.20
2023-05-23T10:28:13.066Z,8.80
2023-05-23T10:33:17.244Z,9.47
2023-05-23T10:38:32.411Z,9.67
2023-05-23T10:43:44.095Z,10.00
2023-05-23T10:48:47.852Z,9.60
2023-05-23T10:53:56.335Z,9.43
2023-05-23T10:58:59.573Z,9.33
2023-05-23T11:04:07.367Z,10.73
2023-05-23T11:09:15.040Z,9.93
2023-05-23T11:14:18.343Z,9.50
2023-05-23T11:19:29.434Z,10.10
2023-05-23T11:24:53.544Z,10.60
2023-05-23T11:30:03.887Z,9.10
2023-05-23T11:35:09.299Z,10.43
2023-05-23T11:40:31.892Z,9.27
2023-05-23T11:45:36.272Z,9.03
2023-05-23T11:50:47.511Z,9.23
2023-05-23T11:55:54.428Z,9.13
2023-05-23T12:01:01.769Z,9.50
2023-05-23T12:06:05.223Z,8.83
2023-05-23T12:11:10.191Z,9.00
2023-05-23T12:16:15.780Z,8.87
2023-05-23T12:21:19.104Z,9.23
2023-05-23T12:26:24.797Z,8.37
2023-05-23T12:31:28.834Z,9.90
2023-05-23T12:36:33.164Z,9.57
2023-05-23T12:41:37.715Z,9.20
2023-05-23T12:46:41.276Z,9.30
2023-05-23T12:51:44.502Z,8.53
2023-05-23T12:56:49.044Z,8.17
2023-05-23T13:01:52.283Z,8.17
2023-05-23T13:06:55.477Z,8.10
2023-05-23T13:12:00.816Z,7.40
2023-05-23T13:17:04.948Z,7.77
2023-05-23T13:22:10.467Z,7.67
2023-05-23T13:27:14.996Z,7.03
2023-05-23T13:32:18.757Z,7.17
2023-05-23T13:37:22.116Z,6.67
2023-05-23T13:42:27.574Z,6.33
2023-05-23T13:47:30.929Z,6.10
2023-05-23T13:52:34.037Z,6.47
2023-05-23T13:57:39.254Z,5.00
2023-05-23T14:02:42.429Z,5.10
2023-05-23T14:07:47.306Z,5.50
2023-05-23T14:12:51.844Z,5.77
2023-05-23T14:17:57.798Z,4.60
2023-05-23T14:23:01.026Z,4.67
2023-05-23T14:28:05.608Z,4.60
2023-05-23T14:33:10.983Z,4.47
2023-05-23T14:38:14.595Z,4.43
2023-05-23T14:43:19.159Z,4.60
2023-05-23T14:48:22.324Z,4.13
2023-05-23T14:53:27.695Z,4.53
2023-05-23T14:58:32.171Z,3.50
2023-05-23T15:03:35.381Z,3.57
2023-05-23T15:08:38.501Z,3.20
2023-05-23T15:13:42.974Z,4.73
2023-05-23T15:18:46.211Z,3.23
2023-05-23T15:23:49.375Z,3.30
2023-05-23T15:28:53.970Z,2.80
2023-05-23T15:33:57.099Z,3.07
2023-05-23T15:39:00.240Z,3.10
2023-05-23T15:44:04.755Z,3.30
2023-05-23T15:49:21.721Z,3.30
2023-05-23T15:54:29.390Z,2.93
2023-05-23T15:59:33.916Z,2.97
2023-05-23T16:04:37.102Z,2.80
2023-05-23T16:09:40.351Z,2.80
2023-05-23T16:14:44.868Z,2.60
2023-05-23T16:19:48.036Z,2.37
2023-05-23T16:24:51.957Z,2.10
2023-05-23T16:29:57.895Z,2.30
2023-05-23T16:35:01.042Z,2.23
2023-05-23T16:40:04.385Z,2.00
2023-05-23T16:45:09.936Z,2.30
2023-05-23T16:50:13.373Z,2.40
2023-05-23T16:55:16.771Z,1.90
2023-05-23T17:00:21.951Z,3.03
2023-05-23T17:05:25.180Z,2.27
2023-05-23T17:10:28.277Z,2.10
2023-05-23T17:15:33.029Z,2.40
2023-05-23T17:20:36.366Z,2.03
2023-05-23T17:25:39.909Z,4.03
2023-05-23T17:30:45.755Z,2.30
2023-05-23T17:35:48.911Z,2.20
2023-05-23T17:40:52.912Z,2.30
2023-05-23T17:45:58.285Z,2.40
2023-05-23T17:51:01.596Z,2.40
2023-05-23T17:56:04.804Z,2.40
2023-05-23T18:01:09.348Z,2.37
2023-05-23T18:06:13.900Z,2.10
2023-05-23T18:11:18.491Z,2.20
2023-05-23T18:16:23.079Z,2.13
2023-05-23T18:21:27.302Z,2.10
2023-05-23T18:26:33.551Z,3.10
2023-05-23T18:31:38.226Z,1.93
2023-05-23T18:36:42.385Z,1.70
2023-05-23T18:41:45.629Z,2.23
2023-05-23T18:46:50.319Z,2.07
2023-05-23T18:51:54.446Z,2.33
2023-05-23T18:56:57.656Z,2.20
2023-05-23T19:02:02.236Z,1.97
2023-05-23T19:07:07.394Z,2.27
2023-05-23T19:12:10.527Z,2.97
2023-05-23T19:17:15.144Z,2.13
2023-05-23T19:22:18.460Z,2.27
2023-05-23T19:27:21.696Z,2.63
2023-05-23T19:32:26.319Z,2.07
2023-05-23T19:37:29.678Z,2.43
2023-05-23T19:42:33.055Z,3.43
2023-05-23T19:47:37.838Z,2.20
2023-05-23T19:52:41.977Z,2.20
2023-05-23T19:57:45.414Z,2.30
2023-05-23T20:02:50.523Z,2.37
2023-05-23T20:07:53.755Z,2.70
2023-05-23T20:12:56.968Z,3.17
2023-05-23T20:18:01.672Z,3.20
2023-05-23T20:23:05.694Z,2.83
2023-05-23T20:28:08.879Z,2.40
2023-05-23T20:33:15.613Z,2.47
2023-05-23T20:38:20.283Z,2.47
2023-05-23T20:43:23.799Z,2.70
2023-05-23T20:48:28.647Z,2.67
2023-05-23T20:53:31.946Z,2.60
2023-05-23T20:58:35.091Z,4.47
2023-05-23T21:03:39.639Z,2.37
2023-05-23T21:08:42.772Z,2.57
2023-05-23T21:13:46.079Z,2.00
2023-05-23T21:18:50.777Z,2.20
2023-05-23T21:23:53.921Z,2.23
2023-05-23T21:28:57.034Z,2.10
2023-05-23T21:34:14.622Z,1.90
2023-05-23T21:39:26.174Z,2.00
2023-05-23T21:44:32.271Z,2.13
2023-05-23T21:49:37.961Z,2.03
2023-05-23T21:54:41.073Z,1.97
2023-05-23T21:59:44.460Z,2.23
2023-05-23T22:04:48.945Z,1.90
2023-05-23T22:09:53.444Z,2.00
2023-05-23T22:14:57.296Z,2.57
2023-05-23T22:20:02.399Z,2.47
2023-05-23T22:25:06.301Z,2.33
2023-05-23T22:30:10.163Z,2.10
2023-05-23T22:35:14.715Z,2.53
2023-05-23T22:40:18.070Z,2.30
2023-05-23T22:45:21.374Z,2.10
2023-05-23T22:50:27.062Z,2.00
2023-05-23T22:55:30.377Z,2.40
2023-05-23T23:00:33.603Z,2.30
2023-05-23T23:05:38.183Z,1.90
2023-05-23T23:10:42.043Z,2.13
2023-05-23T23:15:45.412Z,2.63
2023-05-23T23:20:49.925Z,2.63
2023-05-23T23:25:53.185Z,3.03
2023-05-23T23:30:56.512Z,2.73
2023-05-23T23:36:01.012Z,2.43
2023-05-23T23:41:04.151Z,2.37
2023-05-23T23:46:07.388Z,2.43
2023-05-23T23:51:12.942Z,2.20
2023-05-23T23:56:16.107Z,2.20
